createdAt,value
2022-12-08T00:01:45.454Z,6.78
2022-12-08T00:04:16.915Z,6.82
2022-12-08T00:07:06.887Z,6.85
2022-12-08T00:09:43.045Z,6.87
2022-12-08T00:12:16.365Z,6.79
2022-12-08T00:14:49.510Z,6.78
2022-12-08T00:17:20.575Z,6.85
2022-12-08T00:19:51.871Z,6.82
2022-12-08T00:22:23.143Z,6.76
2022-12-08T00:24:54.613Z,6.74
2022-12-08T00:27:26.065Z,6.68
2022-12-08T00:29:57.790Z,6.63
2022-12-08T00:32:29.153Z,6.59
2022-12-08T00:35:00.661Z,6.67
2022-12-08T00:37:31.484Z,6.70
2022-12-08T00:40:03.020Z,6.73
2022-12-08T00:42:34.591Z,6.75
2022-12-08T00:45:06.354Z,6.79
2022-12-08T00:47:37.629Z,6.81
2022-12-08T00:50:09.307Z,6.82
2022-12-08T00:52:40.571Z,6.82
2022-12-08T00:55:12.057Z,6.86
2022-12-08T00:57:43.676Z,6.94
2022-12-08T01:00:15.856Z,6.92
2022-12-08T01:02:46.879Z,7.03
2022-12-08T01:05:18.891Z,7.07
2022-12-08T01:07:49.303Z,7.12
2022-12-08T01:10:20.838Z,7.13
2022-12-08T01:12:51.906Z,7.16
2022-12-08T01:15:24.012Z,7.23
2022-12-08T01:17:55.423Z,7.28
2022-12-08T01:20:26.968Z,7.32
2022-12-08T01:22:58.125Z,7.37
2022-12-08T01:25:29.328Z,7.42
2022-12-08T01:28:00.603Z,7.45
2022-12-08T01:30:32.568Z,7.47
2022-12-08T01:33:04.463Z,7.50
2022-12-08T01:35:36.994Z,7.52
2022-12-08T01:38:08.578Z,7.51
2022-12-08T01:40:40.620Z,7.49
2022-12-08T01:43:21.720Z,7.48
2022-12-08T01:45:53.522Z,7.46
2022-12-08T01:48:28.287Z,7.38
2022-12-08T01:51:01.069Z,7.37
2022-12-08T01:53:34.391Z,7.38
2022-12-08T01:56:14.244Z,7.38
2022-12-08T01:58:52.687Z,7.32
2022-12-08T02:01:24.980Z,7.34
2022-12-08T02:04:19.150Z,7.42
2022-12-08T02:06:52.320Z,7.45
2022-12-08T02:09:24.369Z,7.46
2022-12-08T02:11:59.907Z,7.39
2022-12-08T02:14:32.187Z,7.38
2022-12-08T02:17:15.525Z,7.22
2022-12-08T02:20:07.938Z,7.15
2022-12-08T02:23:02.358Z,7.19
2022-12-08T02:26:09.176Z,7.20
2022-12-08T02:29:03.348Z,7.24
2022-12-08T02:31:40.342Z,7.26
2022-12-08T02:34:28.034Z,7.29
2022-12-08T02:37:05.462Z,7.23
2022-12-08T02:39:50.371Z,7.21
2022-12-08T02:42:35.195Z,7.24
2022-12-08T02:45:18.751Z,7.35
2022-12-08T02:47:50.939Z,7.35
2022-12-08T02:50:22.868Z,7.24
2022-12-08T02:52:55.375Z,7.07
2022-12-08T02:55:53.201Z,7.11
2022-12-08T02:58:27.798Z,7.05
2022-12-08T03:01:22.643Z,6.99
2022-12-08T03:04:12.130Z,6.94
2022-12-08T03:07:11.798Z,6.89
2022-12-08T03:10:16.262Z,6.84
2022-12-08T03:12:51.649Z,6.73
2022-12-08T03:15:24.332Z,6.79
2022-12-08T03:17:58.858Z,6.82
2022-12-08T03:20:35.108Z,6.80
2022-12-08T03:23:12.329Z,6.92
2022-12-08T03:25:51.853Z,6.98
2022-12-08T03:28:23.871Z,7.01
2022-12-08T03:31:01.029Z,7.00
2022-12-08T03:33:37.789Z,7.06
2022-12-08T03:36:12.079Z,7.03
2022-12-08T03:38:46.906Z,6.98
2022-12-08T03:41:21.135Z,6.95
2022-12-08T03:43:59.377Z,6.92
2022-12-08T03:46:32.491Z,6.81
2022-12-08T03:49:04.445Z,6.74
2022-12-08T03:51:35.353Z,6.63
2022-12-08T03:54:07.219Z,6.57
2022-12-08T03:56:40.570Z,6.57
2022-12-08T03:59:13.366Z,6.53
2022-12-08T04:01:44.920Z,6.46
2022-12-08T04:04:16.711Z,6.58
2022-12-08T04:06:47.247Z,6.59
2022-12-08T04:09:19.430Z,6.57
2022-12-08T04:11:50.805Z,6.47
2022-12-08T04:14:21.928Z,6.48
2022-12-08T04:16:53.382Z,6.57
2022-12-08T04:19:24.742Z,6.54
2022-12-08T04:21:55.955Z,6.61
2022-12-08T04:24:27.323Z,6.59
2022-12-08T04:26:58.635Z,6.67
2022-12-08T04:29:29.651Z,6.77
2022-12-08T04:32:01.342Z,6.83
2022-12-08T04:34:32.621Z,6.88
2022-12-08T04:37:04.167Z,6.92
2022-12-08T04:39:35.845Z,6.93
2022-12-08T04:42:07.579Z,6.96
2022-12-08T04:44:38.854Z,6.97
2022-12-08T04:47:10.572Z,6.94
2022-12-08T04:49:42.016Z,6.82
2022-12-08T04:52:13.838Z,6.74
2022-12-08T04:54:45.197Z,6.68
2022-12-08T04:57:17.243Z,6.50
2022-12-08T04:59:48.710Z,6.34
2022-12-08T05:02:20.088Z,6.30
2022-12-08T05:04:52.854Z,6.29
2022-12-08T05:07:24.009Z,6.25
2022-12-08T05:09:55.225Z,6.34
2022-12-08T05:12:26.579Z,6.40
2022-12-08T05:14:58.005Z,6.47
2022-12-08T05:17:29.355Z,6.50
2022-12-08T05:20:01.062Z,6.53
2022-12-08T05:22:32.492Z,6.56
2022-12-08T05:25:04.038Z,6.58
2022-12-08T05:27:35.649Z,6.58
2022-12-08T05:30:08.048Z,6.56
2022-12-08T05:32:39.810Z,6.58
2022-12-08T05:35:12.072Z,6.56
2022-12-08T05:37:44.149Z,6.61
2022-12-08T05:40:14.659Z,6.63
2022-12-08T05:42:45.881Z,6.63
2022-12-08T05:45:17.863Z,6.58
2022-12-08T05:47:49.443Z,6.51
2022-12-08T05:50:21.233Z,6.46
2022-12-08T05:52:53.453Z,6.41
2022-12-08T05:55:25.008Z,6.46
2022-12-08T05:57:57.192Z,6.40
2022-12-08T06:00:29.193Z,6.29
2022-12-08T06:03:02.771Z,6.39
2022-12-08T06:05:35.816Z,6.43
2022-12-08T06:08:07.971Z,6.47
2022-12-08T06:10:42.650Z,6.51
2022-12-08T06:13:14.908Z,6.56
2022-12-08T06:15:47.103Z,6.59
2022-12-08T06:18:18.781Z,6.60
2022-12-08T06:20:50.453Z,6.62
2022-12-08T06:23:22.302Z,6.58
2022-12-08T06:25:54.850Z,6.58
2022-12-08T06:28:26.764Z,6.60
2022-12-08T06:30:58.805Z,6.61
2022-12-08T06:33:30.649Z,6.56
2022-12-08T06:36:03.065Z,6.71
2022-12-08T06:38:38.137Z,6.75
2022-12-08T06:41:14.621Z,6.68
2022-12-08T06:43:46.782Z,6.70
2022-12-08T06:46:20.934Z,6.62
2022-12-08T06:48:52.903Z,6.61
2022-12-08T06:51:25.399Z,6.60
2022-12-08T06:53:57.122Z,6.58
2022-12-08T06:56:30.008Z,6.52
2022-12-08T06:59:05.896Z,6.50
2022-12-08T07:01:38.449Z,6.54
2022-12-08T07:04:10.947Z,6.56
2022-12-08T07:06:41.849Z,6.60
2022-12-08T07:09:13.813Z,6.69
2022-12-08T07:11:45.768Z,6.74
2022-12-08T07:14:17.372Z,6.76
2022-12-08T07:16:49.017Z,6.67
2022-12-08T07:19:20.974Z,6.57
2022-12-08T07:21:55.219Z,6.53
2022-12-08T07:24:27.223Z,6.63
2022-12-08T07:26:59.002Z,6.63
2022-12-08T07:29:30.661Z,6.57
2022-12-08T07:32:02.657Z,6.58
2022-12-08T07:34:33.299Z,6.54
2022-12-08T07:37:05.575Z,6.59
2022-12-08T07:39:37.281Z,6.50
2022-12-08T07:42:09.058Z,6.54
2022-12-08T07:44:41.371Z,6.63
2022-12-08T07:47:12.730Z,6.81
2022-12-08T07:49:44.592Z,6.91
2022-12-08T07:52:16.223Z,6.97
2022-12-08T07:54:48.592Z,7.03
2022-12-08T07:57:20.717Z,7.16
2022-12-08T07:59:51.482Z,7.22
2022-12-08T08:02:26.033Z,7.28
2022-12-08T08:04:58.583Z,7.34
2022-12-08T08:07:32.305Z,7.39
2022-12-08T08:10:04.946Z,7.39
2022-12-08T08:12:36.857Z,7.41
2022-12-08T08:15:10.546Z,7.42
2022-12-08T08:17:42.545Z,7.43
2022-12-08T08:20:14.635Z,7.44
2022-12-08T08:22:48.335Z,7.40
2022-12-08T08:25:22.573Z,7.41
2022-12-08T08:27:55.457Z,7.47
2022-12-08T08:30:27.246Z,7.48
2022-12-08T08:32:59.186Z,7.49
2022-12-08T08:35:31.928Z,7.53
2022-12-08T08:38:04.014Z,7.61
2022-12-08T08:40:36.356Z,7.70
2022-12-08T08:43:08.982Z,7.76
2022-12-08T08:45:41.133Z,7.78
2022-12-08T08:48:12.974Z,7.72
2022-12-08T08:50:44.745Z,7.84
2022-12-08T08:53:16.887Z,7.80
2022-12-08T08:55:48.760Z,7.84
2022-12-08T08:58:21.260Z,7.97
2022-12-08T09:00:53.625Z,7.98
2022-12-08T09:03:25.353Z,8.14
2022-12-08T09:05:59.667Z,8.25
2022-12-08T09:08:31.923Z,8.24
2022-12-08T09:11:03.955Z,8.21
2022-12-08T09:13:35.881Z,8.04
2022-12-08T09:16:09.618Z,7.97
2022-12-08T09:18:41.678Z,7.95
2022-12-08T09:21:20.327Z,7.92
2022-12-08T09:23:59.424Z,7.94
2022-12-08T09:26:31.143Z,7.94
2022-12-08T09:29:03.399Z,7.90
2022-12-08T09:31:47.272Z,7.95
2022-12-08T09:34:20.767Z,7.99
2022-12-08T09:36:52.332Z,8.02
2022-12-08T09:39:24.085Z,7.99
2022-12-08T09:42:06.942Z,8.00
2022-12-08T09:45:04.405Z,8.11
2022-12-08T09:47:45.154Z,8.20
2022-12-08T09:50:42.795Z,8.36
2022-12-08T09:53:22.926Z,8.48
2022-12-08T09:56:10.386Z,8.73
2022-12-08T09:58:53.826Z,8.79
2022-12-08T10:01:30.693Z,8.71
2022-12-08T10:04:04.233Z,8.66
2022-12-08T10:07:10.155Z,8.70
2022-12-08T10:09:44.807Z,8.77
2022-12-08T10:12:34.386Z,8.74
2022-12-08T10:15:29.606Z,8.70
2022-12-08T10:18:04.902Z,8.58
2022-12-08T10:20:45.196Z,8.54
2022-12-08T10:23:34.757Z,8.64
2022-12-08T10:26:23.571Z,8.70
2022-12-08T10:29:02.921Z,8.69
2022-12-08T10:31:34.870Z,8.69
2022-12-08T10:34:26.030Z,8.65
2022-12-08T10:37:01.257Z,8.56
2022-12-08T10:39:37.743Z,8.51
2022-12-08T10:42:22.643Z,8.53
2022-12-08T10:45:05.632Z,8.44
2022-12-08T10:47:45.381Z,8.38
2022-12-08T10:50:30.787Z,8.45
2022-12-08T10:53:14.529Z,8.44
2022-12-08T10:55:48.215Z,8.43
2022-12-08T10:58:36.756Z,8.48
2022-12-08T11:01:30.843Z,8.47
2022-12-08T11:04:05.192Z,8.41
2022-12-08T11:06:41.258Z,8.45
2022-12-08T11:09:18.385Z,8.48
2022-12-08T11:12:19.626Z,8.50
2022-12-08T11:15:03.608Z,8.63
2022-12-08T11:17:43.950Z,8.74
2022-12-08T11:20:22.582Z,8.82
2022-12-08T11:22:58.118Z,8.91
2022-12-08T11:25:30.172Z,8.99
2022-12-08T11:28:04.897Z,9.01
2022-12-08T11:30:45.684Z,9.02
2022-12-08T11:33:23.056Z,8.99
2022-12-08T11:36:05.813Z,8.99
2022-12-08T11:38:45.563Z,8.94
2022-12-08T11:41:23.640Z,8.93
2022-12-08T11:44:27.849Z,8.83
2022-12-08T11:47:24.130Z,8.74
2022-12-08T11:50:19.495Z,8.82
2022-12-08T11:52:52.988Z,8.90
2022-12-08T11:55:49.671Z,8.99
2022-12-08T11:58:38.463Z,9.12
2022-12-08T12:01:19.877Z,9.11
2022-12-08T12:04:18.395Z,9.03
2022-12-08T12:07:14.164Z,9.01
2022-12-08T12:10:19.512Z,8.96
2022-12-08T12:13:11.300Z,8.87
2022-12-08T12:16:02.794Z,8.80
2022-12-08T12:19:13.742Z,8.79
2022-12-08T12:21:54.714Z,8.77
2022-12-08T12:24:36.224Z,8.75
2022-12-08T12:27:28.228Z,8.71
2022-12-08T12:30:21.721Z,8.69
2022-12-08T12:33:11.840Z,8.64
2022-12-08T12:35:51.075Z,8.76
2022-12-08T12:39:05.926Z,8.76
2022-12-08T12:41:45.466Z,8.76
2022-12-08T12:44:16.691Z,8.72
2022-12-08T12:46:50.872Z,8.64
2022-12-08T12:49:46.030Z,8.56
2022-12-08T12:52:22.455Z,8.53
2022-12-08T12:54:53.967Z,8.40
2022-12-08T12:57:40.486Z,8.33
2022-12-08T13:00:26.437Z,8.29
2022-12-08T13:02:59.847Z,8.25
2022-12-08T13:05:49.478Z,8.15
2022-12-08T13:08:32.024Z,8.26
2022-12-08T13:11:10.891Z,8.27
2022-12-08T13:14:03.423Z,8.24
2022-12-08T13:16:38.902Z,8.32
2022-12-08T13:19:17.702Z,8.36
2022-12-08T13:21:49.772Z,8.41
2022-12-08T13:24:25.769Z,8.44
2022-12-08T13:27:06.416Z,8.48
2022-12-08T13:29:39.183Z,8.46
2022-12-08T13:32:10.945Z,8.40
2022-12-08T13:34:57.545Z,8.39
2022-12-08T13:37:53.997Z,8.33
2022-12-08T13:40:34.299Z,8.30
2022-12-08T13:43:52.469Z,8.24
2022-12-08T13:47:09.812Z,8.18
2022-12-08T13:51:24.028Z,8.20
2022-12-08T13:58:41.764Z,8.31
2022-12-08T14:01:24.960Z,8.34
2022-12-08T14:07:03.806Z,8.35
2022-12-08T14:09:46.714Z,8.32
2022-12-08T14:12:28.814Z,8.28
2022-12-08T14:15:10.529Z,8.24
2022-12-08T14:17:43.504Z,8.17
2022-12-08T14:20:14.944Z,8.08
2022-12-08T14:22:49.683Z,8.01
2022-12-08T14:25:22.789Z,7.95
2022-12-08T14:28:03.338Z,7.88
2022-12-08T14:30:36.973Z,7.88
2022-12-08T14:33:14.182Z,7.91
2022-12-08T14:35:55.159Z,7.96
2022-12-08T14:38:28.367Z,7.96
2022-12-08T14:41:12.992Z,7.97
2022-12-08T14:43:44.874Z,8.00
2022-12-08T14:46:25.170Z,8.01
2022-12-08T14:48:58.073Z,8.00
2022-12-08T14:51:33.049Z,7.98
2022-12-08T14:54:19.712Z,7.95
2022-12-08T14:56:57.723Z,7.91
2022-12-08T14:59:36.384Z,7.84
2022-12-08T15:02:22.810Z,7.75
2022-12-08T15:05:11.252Z,7.73
2022-12-08T15:07:51.764Z,7.55
2022-12-08T15:10:27.460Z,7.57
2022-12-08T15:13:00.247Z,7.61
2022-12-08T15:15:36.580Z,7.65
2022-12-08T15:18:36.882Z,7.68
2022-12-08T15:21:15.951Z,7.70
2022-12-08T15:23:53.317Z,7.74
2022-12-08T15:26:28.135Z,7.75
2022-12-08T15:29:11.398Z,7.70
2022-12-08T15:31:45.836Z,7.62
2022-12-08T15:34:17.493Z,7.63
2022-12-08T15:36:50.827Z,7.74
2022-12-08T15:39:36.112Z,7.75
2022-12-08T15:42:16.677Z,7.76
2022-12-08T15:44:47.839Z,7.76
2022-12-08T15:47:21.816Z,7.77
2022-12-08T15:49:54.980Z,7.83
2022-12-08T15:52:27.613Z,7.91
2022-12-08T15:55:01.763Z,7.95
2022-12-08T15:58:17.539Z,7.96
2022-12-08T16:07:26.855Z,7.79
2022-12-08T16:09:31.401Z,7.78
2022-12-08T16:12:21.792Z,7.81
2022-12-08T16:17:47.035Z,7.87
2022-12-08T16:20:24.281Z,7.89
2022-12-08T16:23:13.451Z,7.90
2022-12-08T16:28:54.320Z,7.96
2022-12-08T16:31:29.892Z,7.98
2022-12-08T16:34:03.286Z,8.00
2022-12-08T16:36:37.941Z,8.02
2022-12-08T16:39:11.439Z,7.94
2022-12-08T16:42:01.423Z,7.65
2022-12-08T16:44:32.674Z,7.41
2022-12-08T16:47:12.803Z,7.37
2022-12-08T16:49:44.484Z,7.36
2022-12-08T16:52:18.913Z,7.34
2022-12-08T16:54:50.640Z,7.36
2022-12-08T16:57:22.191Z,7.33
2022-12-08T16:59:53.854Z,7.36
2022-12-08T17:02:25.107Z,7.40
2022-12-08T17:04:56.882Z,7.45
2022-12-08T17:07:27.472Z,7.50
2022-12-08T17:09:58.988Z,7.56
2022-12-08T17:12:30.382Z,7.57
2022-12-08T17:15:05.823Z,7.59
2022-12-08T17:17:38.050Z,7.62
2022-12-08T17:20:13.529Z,7.62
2022-12-08T17:22:45.045Z,7.56
2022-12-08T17:25:16.878Z,7.63
2022-12-08T17:27:47.482Z,7.66
2022-12-08T17:30:21.895Z,7.69
2022-12-08T17:32:54.136Z,7.71
2022-12-08T17:35:27.392Z,7.76
2022-12-08T17:38:00.095Z,7.80
2022-12-08T17:40:32.650Z,7.79
2022-12-08T17:43:04.345Z,7.79
2022-12-08T17:45:35.842Z,7.77
2022-12-08T17:48:07.336Z,7.76
2022-12-08T17:50:48.737Z,7.71
2022-12-08T17:53:20.108Z,7.64
2022-12-08T17:56:01.851Z,7.46
2022-12-08T17:58:33.899Z,7.30
2022-12-08T18:01:10.329Z,7.12
2022-12-08T18:03:42.163Z,7.01
2022-12-08T18:06:14.924Z,7.04
2022-12-08T18:08:46.101Z,6.99
2022-12-08T18:11:19.808Z,7.05
2022-12-08T18:13:52.128Z,7.13
2022-12-08T18:16:26.077Z,7.20
2022-12-08T18:18:57.737Z,7.20
2022-12-08T18:21:29.357Z,7.31
2022-12-08T18:24:01.235Z,7.28
2022-12-08T18:26:35.574Z,7.32
2022-12-08T18:29:09.262Z,7.40
2022-12-08T18:31:40.032Z,7.33
2022-12-08T18:34:11.599Z,7.31
2022-12-08T18:36:43.051Z,7.37
2022-12-08T18:39:26.342Z,7.41
2022-12-08T18:42:22.429Z,7.45
2022-12-08T18:45:06.921Z,7.52
2022-12-08T18:47:41.717Z,7.60
2022-12-08T18:50:13.972Z,7.70
2022-12-08T18:52:44.804Z,7.75
2022-12-08T18:55:16.983Z,7.74
2022-12-08T18:57:51.981Z,7.77
2022-12-08T19:00:23.704Z,7.83
2022-12-08T19:02:58.060Z,7.81
2022-12-08T19:05:29.535Z,7.70
2022-12-08T19:08:00.934Z,7.66
2022-12-08T19:10:32.413Z,7.57
2022-12-08T19:13:04.147Z,7.44
2022-12-08T19:15:38.907Z,7.36
2022-12-08T19:18:10.188Z,7.42
2022-12-08T19:20:41.572Z,7.43
2022-12-08T19:23:15.249Z,7.41
2022-12-08T19:25:46.853Z,7.37
2022-12-08T19:28:19.527Z,7.37
2022-12-08T19:30:51.042Z,7.36
2022-12-08T19:33:22.772Z,7.30
2022-12-08T19:35:56.721Z,7.31
2022-12-08T19:38:30.708Z,7.35
2022-12-08T19:41:24.265Z,7.41
2022-12-08T19:44:14.268Z,7.47
2022-12-08T19:46:45.707Z,7.52
2022-12-08T19:49:20.216Z,7.53
2022-12-08T19:51:51.569Z,7.51
2022-12-08T19:54:25.723Z,7.62
2022-12-08T19:56:56.843Z,7.62
2022-12-08T19:59:30.110Z,7.68
2022-12-08T20:02:05.208Z,7.80
2022-12-08T20:04:37.469Z,7.87
2022-12-08T20:07:14.676Z,7.92
2022-12-08T20:09:46.093Z,7.96
2022-12-08T20:12:17.680Z,7.98
2022-12-08T20:14:51.811Z,7.98
2022-12-08T20:17:23.078Z,7.96
2022-12-08T20:19:54.617Z,7.89
2022-12-08T20:22:26.153Z,7.84
2022-12-08T20:25:08.103Z,7.77
2022-12-08T20:27:41.177Z,7.74
2022-12-08T20:30:17.034Z,7.74
2022-12-08T20:32:49.494Z,7.80
2022-12-08T20:35:20.919Z,7.87
2022-12-08T20:37:54.059Z,7.92
2022-12-08T20:40:25.503Z,7.94
2022-12-08T20:42:57.339Z,7.87
2022-12-08T20:45:29.533Z,7.78
2022-12-08T20:48:01.886Z,7.70
2022-12-08T20:50:33.861Z,7.71
2022-12-08T20:53:04.726Z,7.69
2022-12-08T20:55:36.820Z,7.58
2022-12-08T20:58:07.055Z,7.54
2022-12-08T21:00:40.874Z,7.57
2022-12-08T21:03:15.297Z,7.59
2022-12-08T21:05:56.826Z,7.63
2022-12-08T21:08:28.527Z,7.66
2022-12-08T21:11:00.486Z,7.65
2022-12-08T21:13:31.425Z,7.67
2022-12-08T21:16:03.849Z,7.74
2022-12-08T21:18:39.455Z,7.78
2022-12-08T21:21:17.546Z,7.76
2022-12-08T21:23:49.803Z,7.89
2022-12-08T21:26:21.384Z,7.95
2022-12-08T21:28:54.571Z,7.98
2022-12-08T21:31:32.181Z,7.97
2022-12-08T21:34:05.294Z,7.91
2022-12-08T21:36:36.691Z,7.82
2022-12-08T21:39:13.068Z,7.62
2022-12-08T21:42:03.881Z,7.65
2022-12-08T21:44:36.611Z,7.64
2022-12-08T21:47:08.885Z,7.61
2022-12-08T21:49:40.823Z,7.59
2022-12-08T21:52:12.662Z,7.55
2022-12-08T21:54:44.410Z,7.51
2022-12-08T21:57:16.463Z,7.46
2022-12-08T21:59:48.466Z,7.36
2022-12-08T22:02:22.709Z,7.41
2022-12-08T22:04:55.237Z,7.39
2022-12-08T22:07:27.612Z,7.38
2022-12-08T22:09:58.478Z,7.39
2022-12-08T22:12:30.250Z,7.42
2022-12-08T22:15:02.818Z,7.36
2022-12-08T22:17:37.070Z,7.33
2022-12-08T22:20:11.537Z,7.29
2022-12-08T22:22:43.888Z,7.33
2022-12-08T22:25:15.415Z,7.32
2022-12-08T22:27:47.479Z,7.33
2022-12-08T22:30:19.568Z,7.27
2022-12-08T22:32:51.259Z,7.32
2022-12-08T22:35:22.904Z,7.34
2022-12-08T22:37:54.780Z,7.28
2022-12-08T22:40:26.609Z,7.39
2022-12-08T22:42:58.375Z,7.45
2022-12-08T22:45:30.047Z,7.52
2022-12-08T22:48:02.178Z,7.58
2022-12-08T22:50:33.853Z,7.62
2022-12-08T22:53:06.326Z,7.66
2022-12-08T22:55:46.460Z,7.69
2022-12-08T22:58:18.375Z,7.65
2022-12-08T23:00:50.095Z,7.68
2022-12-08T23:03:22.052Z,7.71
2022-12-08T23:05:54.008Z,7.76
2022-12-08T23:08:26.229Z,7.76
2022-12-08T23:10:58.737Z,7.75
2022-12-08T23:13:30.720Z,7.77
2022-12-08T23:16:02.314Z,7.78
2022-12-08T23:18:34.104Z,7.72
2022-12-08T23:21:07.851Z,7.75
2022-12-08T23:23:39.784Z,7.78
2022-12-08T23:26:21.068Z,7.90
2022-12-08T23:28:52.428Z,7.90
2022-12-08T23:31:25.556Z,7.93
2022-12-08T23:33:58.245Z,7.93
2022-12-08T23:36:31.523Z,7.95
2022-12-08T23:39:03.427Z,8.05
2022-12-08T23:41:34.893Z,8.10
2022-12-08T23:44:06.565Z,8.05
2022-12-08T23:46:38.487Z,8.11
2022-12-08T23:49:09.203Z,8.12
2022-12-08T23:51:41.053Z,8.11
2022-12-08T23:54:12.861Z,8.00
2022-12-08T23:56:46.771Z,8.05
2022-12-08T23:59:18.717Z,8.04
